createdAt,value
2018-12-21T00:00:53.182Z,39.00
2018-12-21T00:03:21.879Z,38.50
2018-12-21T00:05:50.486Z,37.90
2018-12-21T00:08:19.638Z,38.30
2018-12-21T00:10:48.780Z,37.40
2018-12-21T00:13:17.998Z,38.30
2018-12-21T00:15:47.198Z,38.10
2018-12-21T00:18:16.533Z,38.90
2018-12-21T00:20:45.904Z,39.10
2018-12-21T00:23:14.966Z,40.70
2018-12-21T00:25:44.999Z,40.90
2018-12-21T00:28:14.414Z,42.50
2018-12-21T00:30:43.189Z,42.90
2018-12-21T00:33:17.866Z,43.30
2018-12-21T00:35:52.331Z,44.80
2018-12-21T00:38:26.920Z,45.50
2018-12-21T00:41:01.177Z,45.40
2018-12-21T00:43:32.031Z,47.00
2018-12-21T00:46:01.653Z,47.50
2018-12-21T00:48:30.460Z,48.60
2018-12-21T00:50:59.541Z,48.50
2018-12-21T00:53:28.619Z,49.20
2018-12-21T00:55:57.941Z,50.90
2018-12-21T00:58:27.217Z,51.60
2018-12-21T01:00:56.506Z,51.00
2018-12-21T01:03:27.115Z,50.90
2018-12-21T01:05:56.415Z,50.00
2018-12-21T01:08:25.649Z,49.60
2018-12-21T01:10:54.937Z,50.40
2018-12-21T01:13:24.053Z,50.80
2018-12-21T01:15:53.175Z,49.10
2018-12-21T01:18:23.700Z,49.10
2018-12-21T01:20:53.274Z,48.60
2018-12-21T01:23:21.915Z,49.40
2018-12-21T01:25:53.020Z,48.90
2018-12-21T01:28:21.843Z,49.00
2018-12-21T01:30:50.882Z,49.80
2018-12-21T01:33:20.588Z,49.90
2018-12-21T01:35:50.127Z,50.30
2018-12-21T01:38:20.958Z,51.40
2018-12-21T01:40:50.766Z,52.60
2018-12-21T01:43:19.722Z,52.00
2018-12-21T01:45:49.019Z,51.40
2018-12-21T01:48:18.151Z,52.40
2018-12-21T01:50:47.243Z,52.20
2018-12-21T01:53:16.514Z,52.50
2018-12-21T01:55:45.832Z,52.10
2018-12-21T01:58:14.947Z,52.50
2018-12-21T02:00:43.997Z,54.10
2018-12-21T02:03:13.280Z,54.10
2018-12-21T02:05:42.614Z,53.40
2018-12-21T02:08:11.569Z,53.90
2018-12-21T02:10:40.667Z,54.30
2018-12-21T02:13:09.294Z,54.70
2018-12-21T02:15:37.924Z,53.50
2018-12-21T02:18:06.928Z,52.80
2018-12-21T02:20:36.047Z,52.70
2018-12-21T02:23:05.286Z,51.70
2018-12-21T02:25:34.215Z,51.10
2018-12-21T02:28:03.377Z,50.20
2018-12-21T02:30:32.588Z,49.40
2018-12-21T02:33:01.899Z,50.30
2018-12-21T02:35:31.028Z,49.90
2018-12-21T02:38:00.110Z,49.80
2018-12-21T02:40:29.415Z,50.30
2018-12-21T02:42:58.558Z,52.60
2018-12-21T02:45:27.736Z,51.30
2018-12-21T02:47:57.624Z,51.70
2018-12-21T02:50:26.767Z,51.10
2018-12-21T02:52:55.406Z,51.80
2018-12-21T02:55:24.376Z,51.70
2018-12-21T02:58:00.082Z,50.70
2018-12-21T03:00:28.723Z,49.00
2018-12-21T03:02:57.795Z,52.80
2018-12-21T03:05:27.172Z,51.30
2018-12-21T03:07:56.195Z,49.70
2018-12-21T03:10:25.477Z,48.70
2018-12-21T03:12:54.824Z,48.80
2018-12-21T03:15:24.287Z,47.80
2018-12-21T03:17:53.184Z,49.40
2018-12-21T03:20:22.513Z,49.80
2018-12-21T03:22:51.620Z,49.60
2018-12-21T03:25:20.535Z,49.80
2018-12-21T03:27:49.610Z,49.80
2018-12-21T03:30:19.131Z,49.30
2018-12-21T03:32:48.110Z,50.10
2018-12-21T03:35:16.808Z,49.50
2018-12-21T03:37:45.455Z,50.10
2018-12-21T03:40:14.105Z,47.90
2018-12-21T03:42:42.813Z,47.80
2018-12-21T03:45:11.487Z,47.30
2018-12-21T03:47:40.224Z,48.20
2018-12-21T03:50:08.962Z,47.60
2018-12-21T03:52:37.695Z,47.20
2018-12-21T03:55:06.572Z,46.10
2018-12-21T03:57:35.360Z,44.70
2018-12-21T04:00:05.843Z,45.40
2018-12-21T04:02:34.948Z,47.00
2018-12-21T04:05:04.430Z,45.70
2018-12-21T04:07:33.516Z,45.70
2018-12-21T04:10:02.636Z,45.50
2018-12-21T04:12:31.412Z,45.10
2018-12-21T04:15:00.065Z,48.70
2018-12-21T04:17:28.791Z,46.40
2018-12-21T04:19:57.980Z,46.60
2018-12-21T04:22:33.883Z,46.60
2018-12-21T04:24:57.660Z,46.40
2018-12-21T04:27:26.835Z,45.20
2018-12-21T04:29:55.516Z,44.10
2018-12-21T04:32:24.233Z,44.30
2018-12-21T04:34:53.231Z,43.60
2018-12-21T04:37:22.188Z,43.40
2018-12-21T04:39:51.723Z,44.50
2018-12-21T04:42:20.719Z,44.50
2018-12-21T04:44:49.759Z,44.40
2018-12-21T04:47:18.439Z,44.50
2018-12-21T04:49:47.570Z,45.00
2018-12-21T04:52:16.836Z,46.00
2018-12-21T04:54:45.741Z,46.10
2018-12-21T04:57:14.663Z,46.00
2018-12-21T04:59:43.399Z,47.10
2018-12-21T05:02:12.054Z,50.20
2018-12-21T05:04:40.737Z,52.70
2018-12-21T05:07:12.627Z,54.80
2018-12-21T05:09:40.635Z,57.00
2018-12-21T05:12:09.331Z,58.50
2018-12-21T05:14:38.251Z,59.50
2018-12-21T05:17:06.951Z,60.50
2018-12-21T05:19:36.316Z,60.20
2018-12-21T05:22:05.012Z,60.90
2018-12-21T05:24:34.056Z,61.30
2018-12-21T05:27:03.188Z,61.70
2018-12-21T05:29:32.518Z,61.20
2018-12-21T05:32:02.018Z,61.20
2018-12-21T05:34:30.733Z,61.40
2018-12-21T05:36:59.563Z,61.80
2018-12-21T05:39:28.395Z,62.60
2018-12-21T05:41:57.137Z,63.70
2018-12-21T05:44:25.766Z,64.30
2018-12-21T05:46:54.544Z,64.10
2018-12-21T05:49:23.249Z,64.30
2018-12-21T05:51:51.915Z,64.40
2018-12-21T05:54:20.599Z,64.10
2018-12-21T05:56:50.505Z,65.40
2018-12-21T05:59:20.252Z,65.20
2018-12-21T06:01:48.991Z,64.80
2018-12-21T06:04:18.341Z,65.50
2018-12-21T06:12:30.791Z,65.40
2018-12-21T06:15:00.039Z,62.90
2018-12-21T06:17:29.342Z,63.10
2018-12-21T06:19:58.426Z,63.30
2018-12-21T06:22:27.504Z,63.20
2018-12-21T06:24:56.736Z,63.50
2018-12-21T06:27:26.333Z,63.80
2018-12-21T06:29:55.347Z,64.40
2018-12-21T06:32:24.130Z,63.90
2018-12-21T06:34:52.918Z,64.00
2018-12-21T06:37:21.984Z,63.90
2018-12-21T06:39:50.694Z,63.80
2018-12-21T06:42:19.660Z,63.80
2018-12-21T06:44:48.948Z,64.00
2018-12-21T06:47:18.070Z,64.30
2018-12-21T06:49:47.294Z,65.50
2018-12-21T06:52:16.462Z,66.80
2018-12-21T06:54:45.561Z,67.40
2018-12-21T06:57:14.764Z,67.00
2018-12-21T06:59:44.192Z,66.50
2018-12-21T07:02:13.553Z,65.50
2018-12-21T07:04:42.717Z,65.10
2018-12-21T07:07:11.958Z,64.90
2018-12-21T07:09:41.194Z,64.20
2018-12-21T07:12:10.651Z,64.30
2018-12-21T07:14:39.860Z,63.80
2018-12-21T07:17:09.554Z,64.20
2018-12-21T07:19:39.023Z,64.20
2018-12-21T07:22:08.599Z,64.20
2018-12-21T07:24:37.825Z,64.40
2018-12-21T07:27:06.974Z,64.50
2018-12-21T07:29:36.279Z,64.00
2018-12-21T07:32:05.561Z,64.00
2018-12-21T07:34:34.537Z,64.30
2018-12-21T07:37:03.850Z,64.90
2018-12-21T07:39:33.352Z,65.00
2018-12-21T07:42:02.677Z,64.80
2018-12-21T07:44:32.090Z,65.10
2018-12-21T07:47:01.590Z,65.30
2018-12-21T07:49:30.711Z,65.10
2018-12-21T07:51:59.877Z,64.90
2018-12-21T07:54:29.223Z,65.90
2018-12-21T07:56:58.128Z,66.20
2018-12-21T07:59:27.358Z,66.20
2018-12-21T08:01:56.460Z,66.10
2018-12-21T08:04:25.161Z,66.30
2018-12-21T08:06:54.424Z,66.20
2018-12-21T08:09:24.087Z,65.90
2018-12-21T08:11:53.344Z,66.10
2018-12-21T08:14:22.874Z,66.30
2018-12-21T08:16:51.983Z,66.90
2018-12-21T08:19:21.224Z,67.10
2018-12-21T08:21:50.257Z,67.30
2018-12-21T08:24:19.126Z,67.40
2018-12-21T08:26:48.455Z,67.40
2018-12-21T08:29:17.724Z,68.20
2018-12-21T08:31:46.854Z,68.00
2018-12-21T08:34:16.132Z,68.20
2018-12-21T08:36:45.452Z,68.90
2018-12-21T08:39:15.151Z,68.40
2018-12-21T08:41:45.089Z,68.10
2018-12-21T08:44:14.552Z,67.60
2018-12-21T08:46:44.004Z,67.90
2018-12-21T08:49:12.956Z,67.80
2018-12-21T08:51:41.557Z,67.30
2018-12-21T08:54:10.210Z,67.60
2018-12-21T08:56:39.539Z,67.20
2018-12-21T08:59:08.495Z,66.50
2018-12-21T09:01:37.117Z,67.10
2018-12-21T09:04:06.295Z,66.20
2018-12-21T09:06:35.570Z,65.30
2018-12-21T09:09:06.332Z,64.60
2018-12-21T09:11:35.418Z,64.70
2018-12-21T09:14:04.530Z,65.00
2018-12-21T09:16:33.774Z,65.00
2018-12-21T09:19:02.737Z,64.70
2018-12-21T09:21:31.976Z,64.30
2018-12-21T09:24:01.467Z,63.30
2018-12-21T09:26:30.378Z,62.60
2018-12-21T09:28:59.293Z,61.60
2018-12-21T09:31:28.551Z,61.50
2018-12-21T09:33:57.887Z,61.30
2018-12-21T09:36:27.155Z,60.30
2018-12-21T09:38:55.770Z,59.40
2018-12-21T09:41:25.003Z,59.20
2018-12-21T09:43:54.639Z,58.60
2018-12-21T09:46:23.531Z,58.20
2018-12-21T09:48:52.856Z,59.10
2018-12-21T09:51:21.922Z,59.10
2018-12-21T09:53:51.038Z,59.60
2018-12-21T09:56:20.170Z,58.90
2018-12-21T09:58:49.483Z,59.70
2018-12-21T10:01:19.009Z,60.00
2018-12-21T10:03:48.317Z,59.70
2018-12-21T10:06:17.373Z,60.70
2018-12-21T10:08:46.436Z,60.60
2018-12-21T10:11:15.972Z,61.60
2018-12-21T10:13:45.048Z,61.30
2018-12-21T10:16:14.131Z,61.80
2018-12-21T10:18:42.757Z,63.60
2018-12-21T10:21:11.672Z,64.40
2018-12-21T10:23:40.943Z,64.80
2018-12-21T10:26:10.290Z,64.80
2018-12-21T10:28:39.621Z,65.70
2018-12-21T10:31:08.681Z,65.60
2018-12-21T10:33:37.982Z,65.40
2018-12-21T10:36:07.321Z,65.80
2018-12-21T10:38:36.622Z,65.80
2018-12-21T10:41:05.938Z,66.20
2018-12-21T10:43:35.158Z,66.50
2018-12-21T10:46:04.681Z,66.70
2018-12-21T10:48:37.343Z,67.00
2018-12-21T10:51:05.133Z,67.00
2018-12-21T10:53:34.669Z,68.00
2018-12-21T10:56:03.964Z,67.40
2018-12-21T10:58:32.608Z,67.70
2018-12-21T11:01:01.280Z,67.70
2018-12-21T11:03:29.910Z,67.30
2018-12-21T11:05:58.527Z,67.60
2018-12-21T11:08:27.157Z,68.50
2018-12-21T11:10:56.143Z,68.90
2018-12-21T11:13:26.090Z,68.30
2018-12-21T11:15:55.216Z,68.40
2018-12-21T11:18:24.122Z,68.40
2018-12-21T11:20:53.579Z,68.40
2018-12-21T11:23:22.753Z,68.40
2018-12-21T11:25:52.519Z,68.30
2018-12-21T11:28:25.347Z,68.80
2018-12-21T11:30:53.186Z,68.80
2018-12-21T11:33:22.176Z,68.90
2018-12-21T11:35:51.480Z,69.00
2018-12-21T11:38:20.591Z,68.90
2018-12-21T11:40:49.674Z,69.10
2018-12-21T11:43:19.024Z,68.90
2018-12-21T11:45:48.094Z,68.80
2018-12-21T11:48:17.127Z,68.30
2018-12-21T11:50:45.886Z,68.10
2018-12-21T11:53:14.515Z,68.00
2018-12-21T11:55:43.703Z,67.80
2018-12-21T11:58:12.924Z,67.80
2018-12-21T12:00:42.078Z,68.30
2018-12-21T12:03:11.137Z,67.60
2018-12-21T12:05:40.237Z,67.40
2018-12-21T12:08:09.505Z,67.90
2018-12-21T12:10:39.000Z,68.00
2018-12-21T12:13:08.282Z,68.40
2018-12-21T12:15:37.440Z,68.50
2018-12-21T12:18:06.696Z,68.90
2018-12-21T12:20:35.598Z,68.80
2018-12-21T12:23:04.962Z,69.10
2018-12-21T12:25:34.231Z,69.70
2018-12-21T12:28:03.517Z,69.20
2018-12-21T12:30:32.178Z,69.50
2018-12-21T12:33:00.942Z,70.00
2018-12-21T12:35:30.257Z,69.90
2018-12-21T12:37:58.923Z,69.60
2018-12-21T12:40:28.321Z,70.20
2018-12-21T12:42:57.605Z,70.90
2018-12-21T12:45:26.856Z,70.80
2018-12-21T12:47:55.937Z,71.10
2018-12-21T12:50:25.520Z,71.90
2018-12-21T12:52:54.780Z,73.00
2018-12-21T12:55:24.690Z,73.90
2018-12-21T12:57:53.816Z,75.10
2018-12-21T13:00:23.120Z,76.00
2018-12-21T13:02:52.224Z,76.40
2018-12-21T13:05:21.431Z,77.20
2018-12-21T13:07:50.603Z,77.80
2018-12-21T13:10:19.536Z,78.00
2018-12-21T13:12:48.142Z,78.30
2018-12-21T13:15:16.792Z,78.30
2018-12-21T13:17:45.448Z,78.70
2018-12-21T13:20:14.077Z,79.00
2018-12-21T13:22:43.193Z,79.20
2018-12-21T13:25:12.787Z,79.50
2018-12-21T13:27:41.747Z,80.10
2018-12-21T13:30:12.015Z,80.00
2018-12-21T13:32:41.084Z,80.00
2018-12-21T13:35:10.223Z,80.10
2018-12-21T13:37:39.511Z,80.20
2018-12-21T13:40:09.759Z,80.10
2018-12-21T13:42:38.909Z,80.20
2018-12-21T13:45:09.004Z,80.00
2018-12-21T13:47:38.315Z,80.30
2018-12-21T13:50:09.403Z,80.30
2018-12-21T13:52:39.039Z,80.30
2018-12-21T13:55:08.286Z,80.30
2018-12-21T13:57:37.585Z,80.60
2018-12-21T14:00:08.147Z,80.50
2018-12-21T14:02:36.812Z,80.60
2018-12-21T14:05:05.883Z,80.70
2018-12-21T14:07:35.072Z,80.50
2018-12-21T14:10:05.473Z,80.30
2018-12-21T14:12:34.848Z,80.70
2018-12-21T14:15:03.557Z,80.80
2018-12-21T14:17:32.816Z,81.60
2018-12-21T14:20:02.131Z,82.30
2018-12-21T14:22:31.258Z,82.50
2018-12-21T14:25:00.514Z,83.10
2018-12-21T14:27:29.804Z,83.50
2018-12-21T14:29:58.785Z,84.10
2018-12-21T14:32:27.835Z,84.70
2018-12-21T14:34:57.380Z,84.80
2018-12-21T14:37:26.688Z,85.10
2018-12-21T14:39:55.286Z,85.50
2018-12-21T14:42:23.966Z,85.50
2018-12-21T14:44:52.659Z,85.60
2018-12-21T14:47:21.821Z,85.90
2018-12-21T14:49:57.671Z,86.20
2018-12-21T14:52:27.217Z,86.10
2018-12-21T14:54:56.952Z,85.80
2018-12-21T14:57:26.007Z,86.00
2018-12-21T14:59:55.289Z,86.30
2018-12-21T15:02:24.534Z,86.20
2018-12-21T15:04:53.468Z,86.10
2018-12-21T15:07:22.740Z,86.40
2018-12-21T15:09:52.101Z,86.10
2018-12-21T15:12:21.599Z,86.20
2018-12-21T15:14:50.623Z,86.10
2018-12-21T15:17:19.766Z,85.90
2018-12-21T15:19:49.063Z,86.40
2018-12-21T15:22:18.372Z,86.50
2018-12-21T15:24:46.999Z,86.40
2018-12-21T15:27:15.628Z,86.80
2018-12-21T15:29:45.084Z,86.70
2018-12-21T15:32:14.338Z,87.20
2018-12-21T15:34:42.965Z,87.30
2018-12-21T15:37:12.357Z,87.30
2018-12-21T15:39:41.579Z,87.60
2018-12-21T15:42:10.942Z,87.60
2018-12-21T15:44:39.812Z,87.60
2018-12-21T15:47:09.340Z,87.40
2018-12-21T15:49:38.638Z,87.60
2018-12-21T15:52:07.926Z,87.70
2018-12-21T15:54:37.093Z,87.40
2018-12-21T15:57:06.853Z,87.80
2018-12-21T15:59:35.933Z,87.90
2018-12-21T16:02:04.716Z,87.80
2018-12-21T16:04:33.457Z,87.90
2018-12-21T16:07:02.078Z,87.70
2018-12-21T16:09:30.696Z,87.80
2018-12-21T16:11:59.425Z,87.80
2018-12-21T16:14:36.706Z,87.90
2018-12-21T16:17:05.532Z,88.00
2018-12-21T16:19:34.400Z,88.10
2018-12-21T16:22:03.747Z,88.20
2018-12-21T16:24:32.793Z,88.40
2018-12-21T16:27:02.457Z,88.60
2018-12-21T16:29:31.784Z,88.60
2018-12-21T16:32:00.927Z,89.00
2018-12-21T16:34:29.880Z,89.20
2018-12-21T16:36:59.078Z,89.30
2018-12-21T16:39:28.173Z,89.60
2018-12-21T16:41:57.152Z,90.00
2018-12-21T16:44:26.436Z,90.30
2018-12-21T16:46:55.566Z,90.40
2018-12-21T16:49:25.075Z,90.70
2018-12-21T16:51:53.980Z,90.80
2018-12-21T16:54:23.322Z,90.90
2018-12-21T16:56:52.534Z,91.00
2018-12-21T16:59:21.956Z,91.30
2018-12-21T17:01:51.188Z,91.40
2018-12-21T17:04:19.958Z,91.70
2018-12-21T17:06:49.032Z,91.60
2018-12-21T17:09:18.250Z,91.80
2018-12-21T17:11:47.540Z,91.90
2018-12-21T17:14:16.870Z,91.90
2018-12-21T17:16:45.944Z,92.00
2018-12-21T17:19:15.205Z,92.10
2018-12-21T17:21:44.298Z,92.20
2018-12-21T17:24:13.418Z,92.30
2018-12-21T17:26:42.711Z,92.30
2018-12-21T17:29:11.951Z,92.50
2018-12-21T17:31:41.257Z,92.50
2018-12-21T17:34:10.477Z,92.60
2018-12-21T17:36:39.167Z,92.60
2018-12-21T17:39:08.309Z,92.80
2018-12-21T17:41:36.932Z,92.80
2018-12-21T17:44:05.539Z,92.80
2018-12-21T17:46:34.166Z,92.80
2018-12-21T17:49:03.385Z,92.80
2018-12-21T17:51:32.687Z,92.80
2018-12-21T17:54:02.136Z,92.90
2018-12-21T17:56:31.311Z,92.90
2018-12-21T17:59:00.828Z,92.90
2018-12-21T18:01:30.395Z,93.00
2018-12-21T18:03:59.651Z,93.00
2018-12-21T18:06:28.886Z,93.10
2018-12-21T18:08:58.032Z,93.00
2018-12-21T18:11:27.146Z,93.20
2018-12-21T18:13:56.666Z,93.20
2018-12-21T18:16:25.874Z,93.30
2018-12-21T18:18:55.051Z,93.30
2018-12-21T18:21:24.184Z,93.20
2018-12-21T18:23:52.871Z,93.20
2018-12-21T18:26:22.233Z,92.80
2018-12-21T18:28:51.293Z,92.70
2018-12-21T18:31:20.487Z,92.90
2018-12-21T18:33:49.458Z,92.80
2018-12-21T18:36:18.561Z,92.90
2018-12-21T18:38:47.869Z,92.80
2018-12-21T18:41:16.991Z,92.70
2018-12-21T18:43:46.345Z,92.70
2018-12-21T18:46:15.395Z,92.50
2018-12-21T18:48:44.044Z,92.50
2018-12-21T18:51:13.145Z,91.70
2018-12-21T18:53:42.235Z,89.40
2018-12-21T18:56:12.852Z,89.60
2018-12-21T18:58:42.047Z,87.70
2018-12-21T19:01:11.167Z,88.90
2018-12-21T19:03:40.527Z,87.60
2018-12-21T19:06:09.184Z,87.70
2018-12-21T19:08:37.847Z,84.80
2018-12-21T19:11:07.241Z,84.30
2018-12-21T19:16:09.195Z,84.70
2018-12-21T19:18:38.497Z,80.70
2018-12-21T19:21:07.805Z,78.30
2018-12-21T19:23:37.122Z,75.80
2018-12-21T19:26:06.165Z,76.70
2018-12-21T19:28:35.477Z,76.80
2018-12-21T19:31:05.022Z,74.70
2018-12-21T19:33:33.671Z,73.70
2018-12-21T19:36:02.821Z,71.70
2018-12-21T19:38:31.805Z,69.90
2018-12-21T19:41:00.877Z,69.00
2018-12-21T19:43:30.198Z,66.90
2018-12-21T19:46:01.117Z,64.00
2018-12-21T19:48:30.508Z,63.60
2018-12-21T19:50:59.234Z,61.60
2018-12-21T19:53:27.930Z,60.40
2018-12-21T19:55:56.571Z,58.00
2018-12-21T19:58:25.199Z,58.90
2018-12-21T20:00:53.849Z,57.90
2018-12-21T20:03:23.022Z,57.10
2018-12-21T20:05:52.500Z,57.50
2018-12-21T20:08:22.160Z,55.00
2018-12-21T20:10:51.203Z,56.20
2018-12-21T20:13:20.302Z,54.10
2018-12-21T20:15:49.467Z,53.90
2018-12-21T20:18:18.551Z,55.10
2018-12-21T20:20:47.599Z,55.30
2018-12-21T20:23:16.917Z,55.10
2018-12-21T20:25:46.201Z,51.30
2018-12-21T20:28:15.274Z,50.40
2018-12-21T20:30:44.489Z,52.40
2018-12-21T20:33:13.326Z,52.00
2018-12-21T20:35:42.094Z,50.70
2018-12-21T20:38:11.312Z,52.20
2018-12-21T20:40:39.915Z,53.50
2018-12-21T20:43:08.893Z,52.80
2018-12-21T20:45:37.583Z,48.00
2018-12-21T20:48:06.462Z,54.30
2018-12-21T20:50:35.696Z,52.60
2018-12-21T20:53:04.904Z,47.10
2018-12-21T20:55:34.109Z,51.30
2018-12-21T20:58:03.548Z,49.20
2018-12-21T21:00:32.712Z,45.50
2018-12-21T21:03:01.879Z,42.00
2018-12-21T21:05:31.261Z,41.30
2018-12-21T21:08:00.571Z,40.80
2018-12-21T21:10:29.852Z,41.20
2018-12-21T21:12:59.136Z,41.60
2018-12-21T21:15:27.768Z,40.80
2018-12-21T21:17:56.426Z,41.30
2018-12-21T21:20:25.563Z,42.00
2018-12-21T21:22:54.215Z,42.40
2018-12-21T21:25:23.247Z,41.20
2018-12-21T21:27:51.894Z,40.00
2018-12-21T21:30:20.962Z,39.30
2018-12-21T21:32:49.679Z,41.50
2018-12-21T21:35:18.923Z,39.40
2018-12-21T21:37:48.297Z,40.20
2018-12-21T21:40:18.200Z,38.70
2018-12-21T21:42:47.865Z,39.80
2018-12-21T21:45:17.155Z,39.90
2018-12-21T21:47:45.879Z,39.10
2018-12-21T21:50:14.945Z,38.80
2018-12-21T21:52:44.078Z,38.20
2018-12-21T21:55:13.108Z,38.80
2018-12-21T21:57:42.634Z,37.20
2018-12-21T22:00:12.522Z,37.50
2018-12-21T22:02:41.269Z,40.30
2018-12-21T22:05:10.408Z,41.10
2018-12-21T22:07:39.068Z,39.80
2018-12-21T22:10:09.115Z,40.70
2018-12-21T22:12:37.763Z,39.70
2018-12-21T22:15:07.770Z,39.20
2018-12-21T22:17:37.121Z,36.70
2018-12-21T22:20:08.075Z,39.40
2018-12-21T22:22:36.993Z,40.50
2018-12-21T22:25:05.998Z,39.70
2018-12-21T22:27:35.388Z,40.10
2018-12-21T22:30:06.885Z,39.60
2018-12-21T22:32:36.181Z,39.60
2018-12-21T22:35:05.521Z,38.90
2018-12-21T22:37:34.772Z,38.70
2018-12-21T22:40:04.182Z,39.90
2018-12-21T22:42:33.507Z,39.30
2018-12-21T22:45:02.817Z,38.90
2018-12-21T22:47:32.123Z,39.40
2018-12-21T22:50:00.750Z,38.80
2018-12-21T22:52:30.172Z,38.70
2018-12-21T22:54:59.470Z,38.60
2018-12-21T22:57:28.137Z,38.60
2018-12-21T22:59:57.240Z,38.10
2018-12-21T23:02:26.380Z,37.90
2018-12-21T23:04:55.215Z,38.60
2018-12-21T23:07:24.380Z,38.90
2018-12-21T23:09:53.786Z,38.10
2018-12-21T23:12:23.333Z,37.80
2018-12-21T23:14:52.785Z,37.10
2018-12-21T23:17:21.858Z,37.20
2018-12-21T23:19:50.953Z,36.80
2018-12-21T23:22:20.176Z,37.20
2018-12-21T23:24:49.380Z,38.50
2018-12-21T23:27:18.667Z,39.80
2018-12-21T23:29:47.779Z,39.60
2018-12-21T23:32:16.402Z,39.50
2018-12-21T23:34:45.058Z,38.90
2018-12-21T23:37:14.356Z,39.90
2018-12-21T23:39:42.981Z,39.60
2018-12-21T23:42:12.253Z,41.00
2018-12-21T23:44:41.731Z,40.20
2018-12-21T23:47:10.907Z,40.60
2018-12-21T23:49:39.943Z,41.70
2018-12-21T23:52:09.239Z,42.50
2018-12-21T23:54:38.349Z,43.40
2018-12-21T23:57:07.601Z,43.30
2018-12-21T23:59:36.870Z,43.50
